sensor_id;sensor_type;location;lat;lon;timestamp;temperature;humidity
22065;DHT22;11197;53.110;8.468;2023-06-26T00:02:14;23.10;99.90
22065;DHT22;11197;53.110;8.468;2023-06-26T00:04:45;23.10;99.90
22065;DHT22;11197;53.110;8.468;2023-06-26T00:07:10;23.10;99.90
22065;DHT22;11197;53.110;8.468;2023-06-26T00:09:36;23.00;99.90
22065;DHT22;11197;53.110;8.468;2023-06-26T00:12:02;23.00;99.90
22065;DHT22;11197;53.110;8.468;2023-06-26T00:14:29;23.00;99.90
22065;DHT22;11197;53.110;8.468;2023-06-26T00:16:55;22.90;99.90
22065;DHT22;11197;53.110;8.468;2023-06-26T00:19:20;23.00;99.90
22065;DHT22;11197;53.110;8.468;2023-06-26T00:21:46;22.90;99.90
22065;DHT22;11197;53.110;8.468;2023-06-26T00:24:14;22.90;99.90
22065;DHT22;11197;53.110;8.468;2023-06-26T00:26:40;22.80;99.90
22065;DHT22;11197;53.110;8.468;2023-06-26T00:29:06;22.80;99.90
22065;DHT22;11197;53.110;8.468;2023-06-26T00:31:32;22.80;99.90
22065;DHT22;11197;53.110;8.468;2023-06-26T00:34:01;22.80;99.90
22065;DHT22;11197;53.110;8.468;2023-06-26T00:36:27;22.80;99.90
22065;DHT22;11197;53.110;8.468;2023-06-26T00:38:53;22.70;99.90
22065;DHT22;11197;53.110;8.468;2023-06-26T00:41:19;22.70;99.90
22065;DHT22;11197;53.110;8.468;2023-06-26T00:43:44;22.70;99.90
22065;DHT22;11197;53.110;8.468;2023-06-26T00:46:12;22.70;99.90
22065;DHT22;11197;53.110;8.468;2023-06-26T00:48:42;22.70;99.90
22065;DHT22;11197;53.110;8.468;2023-06-26T00:51:08;22.60;99.90
22065;DHT22;11197;53.110;8.468;2023-06-26T00:53:34;22.60;99.90
22065;DHT22;11197;53.110;8.468;2023-06-26T00:56:01;22.60;99.90
22065;DHT22;11197;53.110;8.468;2023-06-26T00:58:28;22.60;99.90
22065;DHT22;11197;53.110;8.468;2023-06-26T01:00:57;22.60;99.90
22065;DHT22;11197;53.110;8.468;2023-06-26T01:03:24;22.50;99.90
22065;DHT22;11197;53.110;8.468;2023-06-26T01:05:52;22.50;99.90
22065;DHT22;11197;53.110;8.468;2023-06-26T01:08:18;22.50;99.90
22065;DHT22;11197;53.110;8.468;2023-06-26T01:10:45;22.50;99.90
22065;DHT22;11197;53.110;8.468;2023-06-26T01:13:12;22.40;99.90
22065;DHT22;11197;53.110;8.468;2023-06-26T01:15:39;22.40;99.90
22065;DHT22;11197;53.110;8.468;2023-06-26T01:18:06;22.40;99.90
22065;DHT22;11197;53.110;8.468;2023-06-26T01:20:36;22.40;99.90
22065;DHT22;11197;53.110;8.468;2023-06-26T01:23:14;22.40;99.90
22065;DHT22;11197;53.110;8.468;2023-06-26T01:28:40;22.30;99.90
22065;DHT22;11197;53.110;8.468;2023-06-26T01:31:07;22.30;99.90
22065;DHT22;11197;53.110;8.468;2023-06-26T01:33:34;22.30;99.90
22065;DHT22;11197;53.110;8.468;2023-06-26T01:36:01;22.30;99.90
22065;DHT22;11197;53.110;8.468;2023-06-26T01:38:27;22.30;99.90
22065;DHT22;11197;53.110;8.468;2023-06-26T01:40:56;22.20;99.90
22065;DHT22;11197;53.110;8.468;2023-06-26T01:45:50;22.20;99.90
22065;DHT22;11197;53.110;8.468;2023-06-26T01:48:25;22.20;99.90
22065;DHT22;11197;53.110;8.468;2023-06-26T01:50:55;22.20;99.90
22065;DHT22;11197;53.110;8.468;2023-06-26T01:53:25;22.10;99.90
22065;DHT22;11197;53.110;8.468;2023-06-26T01:55:59;22.10;99.90
22065;DHT22;11197;53.110;8.468;2023-06-26T01:58:27;22.10;99.90
22065;DHT22;11197;53.110;8.468;2023-06-26T02:00:53;22.10;99.90
22065;DHT22;11197;53.110;8.468;2023-06-26T02:03:19;22.00;99.90
22065;DHT22;11197;53.110;8.468;2023-06-26T02:05:45;22.00;99.90
22065;DHT22;11197;53.110;8.468;2023-06-26T02:08:15;22.00;99.90
22065;DHT22;11197;53.110;8.468;2023-06-26T02:10:47;22.00;99.90
22065;DHT22;11197;53.110;8.468;2023-06-26T02:13:15;22.00;99.90
22065;DHT22;11197;53.110;8.468;2023-06-26T02:15:41;21.90;99.90
22065;DHT22;11197;53.110;8.468;2023-06-26T02:18:07;21.90;99.90
22065;DHT22;11197;53.110;8.468;2023-06-26T02:20:33;21.90;99.90
22065;DHT22;11197;53.110;8.468;2023-06-26T02:22:59;21.80;99.90
22065;DHT22;11197;53.110;8.468;2023-06-26T02:25:25;21.80;99.90
22065;DHT22;11197;53.110;8.468;2023-06-26T02:27:51;21.80;99.90
22065;DHT22;11197;53.110;8.468;2023-06-26T02:30:19;21.80;99.90
22065;DHT22;11197;53.110;8.468;2023-06-26T02:32:44;21.70;99.90
22065;DHT22;11197;53.110;8.468;2023-06-26T02:35:10;21.70;99.90
22065;DHT22;11197;53.110;8.468;2023-06-26T02:37:41;21.70;99.90
22065;DHT22;11197;53.110;8.468;2023-06-26T02:40:08;21.70;99.90
22065;DHT22;11197;53.110;8.468;2023-06-26T02:42:37;21.60;99.90
22065;DHT22;11197;53.110;8.468;2023-06-26T02:45:04;21.60;99.90
22065;DHT22;11197;53.110;8.468;2023-06-26T02:47:31;21.60;99.90
22065;DHT22;11197;53.110;8.468;2023-06-26T02:49:57;21.50;99.90
22065;DHT22;11197;53.110;8.468;2023-06-26T02:52:23;21.50;99.90
22065;DHT22;11197;53.110;8.468;2023-06-26T02:54:49;21.50;99.90
22065;DHT22;11197;53.110;8.468;2023-06-26T02:57:14;21.50;99.90
22065;DHT22;11197;53.110;8.468;2023-06-26T02:59:41;21.40;99.90
22065;DHT22;11197;53.110;8.468;2023-06-26T03:02:08;21.40;99.90
22065;DHT22;11197;53.110;8.468;2023-06-26T03:04:39;21.40;99.90
22065;DHT22;11197;53.110;8.468;2023-06-26T03:07:09;21.30;99.90
22065;DHT22;11197;53.110;8.468;2023-06-26T03:09:36;21.30;99.90
22065;DHT22;11197;53.110;8.468;2023-06-26T03:12:02;21.30;99.90
22065;DHT22;11197;53.110;8.468;2023-06-26T03:14:28;21.30;99.90
22065;DHT22;11197;53.110;8.468;2023-06-26T03:16:54;21.30;99.90
22065;DHT22;11197;53.110;8.468;2023-06-26T03:19:24;21.20;99.90
22065;DHT22;11197;53.110;8.468;2023-06-26T03:22:13;21.20;99.90
22065;DHT22;11197;53.110;8.468;2023-06-26T03:24:39;21.20;99.90
22065;DHT22;11197;53.110;8.468;2023-06-26T03:27:05;21.20;99.90
22065;DHT22;11197;53.110;8.468;2023-06-26T03:29:31;21.20;99.90
22065;DHT22;11197;53.110;8.468;2023-06-26T03:31:57;21.20;99.90
22065;DHT22;11197;53.110;8.468;2023-06-26T03:34:23;21.20;99.90
22065;DHT22;11197;53.110;8.468;2023-06-26T03:36:49;21.20;99.90
22065;DHT22;11197;53.110;8.468;2023-06-26T03:39:14;21.20;99.90
22065;DHT22;11197;53.110;8.468;2023-06-26T03:41:40;21.20;99.90
22065;DHT22;11197;53.110;8.468;2023-06-26T03:44:06;21.20;99.90
22065;DHT22;11197;53.110;8.468;2023-06-26T03:46:41;21.10;99.90
22065;DHT22;11197;53.110;8.468;2023-06-26T03:49:06;21.10;99.90
22065;DHT22;11197;53.110;8.468;2023-06-26T03:51:32;21.10;99.90
22065;DHT22;11197;53.110;8.468;2023-06-26T03:53:58;21.10;99.90
22065;DHT22;11197;53.110;8.468;2023-06-26T03:56:24;21.10;99.90
22065;DHT22;11197;53.110;8.468;2023-06-26T03:58:49;21.10;99.90
22065;DHT22;11197;53.110;8.468;2023-06-26T04:01:15;21.10;99.90
22065;DHT22;11197;53.110;8.468;2023-06-26T04:03:42;21.10;99.90
22065;DHT22;11197;53.110;8.468;2023-06-26T04:06:10;21.10;99.90
22065;DHT22;11197;53.110;8.468;2023-06-26T04:08:36;21.10;99.90
22065;DHT22;11197;53.110;8.468;2023-06-26T04:11:02;21.10;99.90
22065;DHT22;11197;53.110;8.468;2023-06-26T04:13:27;21.10;99.90
22065;DHT22;11197;53.110;8.468;2023-06-26T04:15:53;21.10;99.90
22065;DHT22;11197;53.110;8.468;2023-06-26T04:18:19;21.10;99.90
22065;DHT22;11197;53.110;8.468;2023-06-26T04:23:33;21.10;99.90
22065;DHT22;11197;53.110;8.468;2023-06-26T04:25:59;21.10;99.90
22065;DHT22;11197;53.110;8.468;2023-06-26T04:28:25;21.10;99.90
22065;DHT22;11197;53.110;8.468;2023-06-26T04:30:51;21.10;99.90
22065;DHT22;11197;53.110;8.468;2023-06-26T04:33:16;21.10;99.90
22065;DHT22;11197;53.110;8.468;2023-06-26T04:35:42;21.10;99.90
22065;DHT22;11197;53.110;8.468;2023-06-26T04:38:11;21.10;99.90
22065;DHT22;11197;53.110;8.468;2023-06-26T04:40:37;21.20;99.90
22065;DHT22;11197;53.110;8.468;2023-06-26T04:43:03;21.20;99.90
22065;DHT22;11197;53.110;8.468;2023-06-26T04:45:29;21.20;99.90
22065;DHT22;11197;53.110;8.468;2023-06-26T04:47:54;21.20;99.90
22065;DHT22;11197;53.110;8.468;2023-06-26T04:50:22;21.20;99.90
22065;DHT22;11197;53.110;8.468;2023-06-26T04:52:47;21.30;99.90
22065;DHT22;11197;53.110;8.468;2023-06-26T04:55:13;21.30;99.90
22065;DHT22;11197;53.110;8.468;2023-06-26T04:57:39;21.30;99.90
22065;DHT22;11197;53.110;8.468;2023-06-26T05:00:05;21.30;99.90
22065;DHT22;11197;53.110;8.468;2023-06-26T05:02:35;21.40;99.90
22065;DHT22;11197;53.110;8.468;2023-06-26T05:05:01;21.40;99.90
22065;DHT22;11197;53.110;8.468;2023-06-26T05:07:27;21.40;99.90
22065;DHT22;11197;53.110;8.468;2023-06-26T05:09:52;21.40;99.90
22065;DHT22;11197;53.110;8.468;2023-06-26T05:12:18;21.50;99.90
22065;DHT22;11197;53.110;8.468;2023-06-26T05:14:44;21.50;99.90
22065;DHT22;11197;53.110;8.468;2023-06-26T05:17:11;21.50;99.90
22065;DHT22;11197;53.110;8.468;2023-06-26T05:19:36;21.50;99.90
22065;DHT22;11197;53.110;8.468;2023-06-26T05:22:02;21.50;99.90
22065;DHT22;11197;53.110;8.468;2023-06-26T05:24:36;21.60;99.90
22065;DHT22;11197;53.110;8.468;2023-06-26T05:27:03;21.70;99.90
22065;DHT22;11197;53.110;8.468;2023-06-26T05:29:32;21.90;99.90
22065;DHT22;11197;53.110;8.468;2023-06-26T05:31:59;22.00;99.90
22065;DHT22;11197;53.110;8.468;2023-06-26T05:34:25;22.10;99.90
22065;DHT22;11197;53.110;8.468;2023-06-26T05:36:58;22.20;99.90
22065;DHT22;11197;53.110;8.468;2023-06-26T05:39:24;22.40;99.90
22065;DHT22;11197;53.110;8.468;2023-06-26T05:41:50;22.50;99.90
22065;DHT22;11197;53.110;8.468;2023-06-26T05:44:16;22.50;99.90
22065;DHT22;11197;53.110;8.468;2023-06-26T05:46:43;22.60;99.90
22065;DHT22;11197;53.110;8.468;2023-06-26T05:49:09;22.60;99.90
22065;DHT22;11197;53.110;8.468;2023-06-26T05:51:35;22.70;99.90
22065;DHT22;11197;53.110;8.468;2023-06-26T05:54:01;22.80;99.90
22065;DHT22;11197;53.110;8.468;2023-06-26T05:56:28;22.90;99.90
22065;DHT22;11197;53.110;8.468;2023-06-26T05:58:54;22.90;99.90
22065;DHT22;11197;53.110;8.468;2023-06-26T06:01:20;23.00;99.90
22065;DHT22;11197;53.110;8.468;2023-06-26T06:03:46;23.10;99.90
22065;DHT22;11197;53.110;8.468;2023-06-26T06:06:12;23.20;99.90
22065;DHT22;11197;53.110;8.468;2023-06-26T06:08:38;23.30;99.90
22065;DHT22;11197;53.110;8.468;2023-06-26T06:11:04;23.40;99.90
22065;DHT22;11197;53.110;8.468;2023-06-26T06:13:30;23.50;99.90
22065;DHT22;11197;53.110;8.468;2023-06-26T06:15:56;23.60;99.90
22065;DHT22;11197;53.110;8.468;2023-06-26T06:18:22;23.70;99.90
22065;DHT22;11197;53.110;8.468;2023-06-26T06:20:48;23.80;99.90
22065;DHT22;11197;53.110;8.468;2023-06-26T06:23:13;23.90;99.90
22065;DHT22;11197;53.110;8.468;2023-06-26T06:25:39;24.00;99.90
22065;DHT22;11197;53.110;8.468;2023-06-26T06:28:05;24.10;99.90
22065;DHT22;11197;53.110;8.468;2023-06-26T06:30:31;24.20;99.90
22065;DHT22;11197;53.110;8.468;2023-06-26T06:32:58;24.20;99.90
22065;DHT22;11197;53.110;8.468;2023-06-26T06:35:24;24.30;99.90
22065;DHT22;11197;53.110;8.468;2023-06-26T06:37:49;24.30;99.90
22065;DHT22;11197;53.110;8.468;2023-06-26T06:40:16;24.20;99.90
22065;DHT22;11197;53.110;8.468;2023-06-26T06:42:42;24.20;99.90
22065;DHT22;11197;53.110;8.468;2023-06-26T06:45:08;24.20;99.90
22065;DHT22;11197;53.110;8.468;2023-06-26T06:47:34;24.20;99.90
22065;DHT22;11197;53.110;8.468;2023-06-26T06:50:02;24.20;99.90
22065;DHT22;11197;53.110;8.468;2023-06-26T06:52:39;24.30;99.90
22065;DHT22;11197;53.110;8.468;2023-06-26T06:55:07;24.40;99.90
22065;DHT22;11197;53.110;8.468;2023-06-26T06:57:37;24.40;99.90
22065;DHT22;11197;53.110;8.468;2023-06-26T07:00:08;24.40;99.90
22065;DHT22;11197;53.110;8.468;2023-06-26T07:02:35;24.30;99.90
22065;DHT22;11197;53.110;8.468;2023-06-26T07:05:02;24.20;99.90
22065;DHT22;11197;53.110;8.468;2023-06-26T07:07:30;24.20;99.90
22065;DHT22;11197;53.110;8.468;2023-06-26T07:10:02;24.20;99.90
22065;DHT22;11197;53.110;8.468;2023-06-26T07:12:28;24.30;99.90
22065;DHT22;11197;53.110;8.468;2023-06-26T07:14:55;24.40;99.90
22065;DHT22;11197;53.110;8.468;2023-06-26T07:17:21;24.40;99.90
22065;DHT22;11197;53.110;8.468;2023-06-26T07:19:47;24.50;99.90
22065;DHT22;11197;53.110;8.468;2023-06-26T07:22:13;24.50;99.90
22065;DHT22;11197;53.110;8.468;2023-06-26T07:24:39;24.50;99.90
22065;DHT22;11197;53.110;8.468;2023-06-26T07:27:04;24.50;99.90
22065;DHT22;11197;53.110;8.468;2023-06-26T07:29:30;24.50;99.90
22065;DHT22;11197;53.110;8.468;2023-06-26T07:31:56;24.50;99.90
22065;DHT22;11197;53.110;8.468;2023-06-26T07:34:21;24.50;99.90
22065;DHT22;11197;53.110;8.468;2023-06-26T07:36:47;24.50;99.90
22065;DHT22;11197;53.110;8.468;2023-06-26T07:39:13;24.50;99.90
22065;DHT22;11197;53.110;8.468;2023-06-26T07:41:39;24.50;99.90
22065;DHT22;11197;53.110;8.468;2023-06-26T07:44:04;24.60;99.90
22065;DHT22;11197;53.110;8.468;2023-06-26T07:46:30;24.60;99.90
22065;DHT22;11197;53.110;8.468;2023-06-26T07:48:56;24.60;99.90
22065;DHT22;11197;53.110;8.468;2023-06-26T07:51:21;24.70;99.90
22065;DHT22;11197;53.110;8.468;2023-06-26T07:53:47;24.70;99.90
22065;DHT22;11197;53.110;8.468;2023-06-26T07:56:13;24.70;99.90
22065;DHT22;11197;53.110;8.468;2023-06-26T07:58:39;24.60;99.90
22065;DHT22;11197;53.110;8.468;2023-06-26T08:01:04;24.50;99.90
22065;DHT22;11197;53.110;8.468;2023-06-26T08:03:30;24.40;99.90
22065;DHT22;11197;53.110;8.468;2023-06-26T08:05:56;24.30;99.90
22065;DHT22;11197;53.110;8.468;2023-06-26T08:08:22;24.20;99.90
22065;DHT22;11197;53.110;8.468;2023-06-26T08:10:48;24.10;99.90
22065;DHT22;11197;53.110;8.468;2023-06-26T08:13:14;24.00;99.90
22065;DHT22;11197;53.110;8.468;2023-06-26T08:15:39;23.90;99.90
22065;DHT22;11197;53.110;8.468;2023-06-26T08:18:05;23.80;99.90
22065;DHT22;11197;53.110;8.468;2023-06-26T08:20:31;23.70;99.90
22065;DHT22;11197;53.110;8.468;2023-06-26T08:22:57;23.60;99.90
22065;DHT22;11197;53.110;8.468;2023-06-26T08:25:22;23.40;99.90
22065;DHT22;11197;53.110;8.468;2023-06-26T08:27:48;23.30;99.90
22065;DHT22;11197;53.110;8.468;2023-06-26T08:30:14;23.20;99.90
22065;DHT22;11197;53.110;8.468;2023-06-26T08:32:40;23.10;99.90
22065;DHT22;11197;53.110;8.468;2023-06-26T08:35:06;23.00;99.90
22065;DHT22;11197;53.110;8.468;2023-06-26T08:37:32;23.00;99.90
22065;DHT22;11197;53.110;8.468;2023-06-26T08:39:59;23.00;99.90
22065;DHT22;11197;53.110;8.468;2023-06-26T08:42:25;22.90;99.90
22065;DHT22;11197;53.110;8.468;2023-06-26T08:44:51;22.90;99.90
22065;DHT22;11197;53.110;8.468;2023-06-26T08:47:18;22.90;99.90
22065;DHT22;11197;53.110;8.468;2023-06-26T08:52:23;23.00;99.90
22065;DHT22;11197;53.110;8.468;2023-06-26T08:54:54;22.90;99.90
22065;DHT22;11197;53.110;8.468;2023-06-26T08:57:23;22.90;99.90
22065;DHT22;11197;53.110;8.468;2023-06-26T08:59:48;23.00;99.90
22065;DHT22;11197;53.110;8.468;2023-06-26T09:02:14;23.00;99.90
22065;DHT22;11197;53.110;8.468;2023-06-26T09:04:41;23.00;99.90
22065;DHT22;11197;53.110;8.468;2023-06-26T09:07:07;23.00;99.90
22065;DHT22;11197;53.110;8.468;2023-06-26T09:09:33;23.10;99.90
22065;DHT22;11197;53.110;8.468;2023-06-26T09:12:00;23.20;99.90
22065;DHT22;11197;53.110;8.468;2023-06-26T09:14:26;23.20;99.90
22065;DHT22;11197;53.110;8.468;2023-06-26T09:16:52;23.20;99.90
22065;DHT22;11197;53.110;8.468;2023-06-26T09:19:18;23.30;99.90
22065;DHT22;11197;53.110;8.468;2023-06-26T09:21:44;23.30;99.90
22065;DHT22;11197;53.110;8.468;2023-06-26T09:24:10;23.30;99.90
22065;DHT22;11197;53.110;8.468;2023-06-26T09:26:37;23.40;99.90
22065;DHT22;11197;53.110;8.468;2023-06-26T09:29:05;23.40;99.90
22065;DHT22;11197;53.110;8.468;2023-06-26T09:31:32;23.40;99.90
22065;DHT22;11197;53.110;8.468;2023-06-26T09:33:59;23.40;99.90
22065;DHT22;11197;53.110;8.468;2023-06-26T09:36:28;23.40;99.90
22065;DHT22;11197;53.110;8.468;2023-06-26T09:38:54;23.40;99.90
22065;DHT22;11197;53.110;8.468;2023-06-26T09:41:20;23.40;99.90
22065;DHT22;11197;53.110;8.468;2023-06-26T09:43:50;23.50;99.90
22065;DHT22;11197;53.110;8.468;2023-06-26T09:46:17;23.40;99.90
22065;DHT22;11197;53.110;8.468;2023-06-26T09:48:43;23.40;99.90
22065;DHT22;11197;53.110;8.468;2023-06-26T09:51:10;23.40;99.90
22065;DHT22;11197;53.110;8.468;2023-06-26T09:53:35;23.50;99.90
22065;DHT22;11197;53.110;8.468;2023-06-26T09:56:07;23.50;99.90
22065;DHT22;11197;53.110;8.468;2023-06-26T09:58:33;23.60;99.90
22065;DHT22;11197;53.110;8.468;2023-06-26T10:01:00;23.60;99.90
22065;DHT22;11197;53.110;8.468;2023-06-26T10:03:26;23.60;99.90
22065;DHT22;11197;53.110;8.468;2023-06-26T10:05:52;23.60;99.90
22065;DHT22;11197;53.110;8.468;2023-06-26T10:08:19;23.70;99.90
22065;DHT22;11197;53.110;8.468;2023-06-26T10:10:46;23.80;99.90
22065;DHT22;11197;53.110;8.468;2023-06-26T10:13:37;23.90;99.90
22065;DHT22;11197;53.110;8.468;2023-06-26T10:16:04;24.00;99.90
22065;DHT22;11197;53.110;8.468;2023-06-26T10:18:33;23.90;99.90
22065;DHT22;11197;53.110;8.468;2023-06-26T10:21:01;23.80;99.90
22065;DHT22;11197;53.110;8.468;2023-06-26T10:23:28;23.80;99.90
22065;DHT22;11197;53.110;8.468;2023-06-26T10:25:58;23.80;99.90
22065;DHT22;11197;53.110;8.468;2023-06-26T10:28:27;23.80;99.90
22065;DHT22;11197;53.110;8.468;2023-06-26T10:30:55;23.80;99.90
22065;DHT22;11197;53.110;8.468;2023-06-26T10:33:22;23.80;99.90
22065;DHT22;11197;53.110;8.468;2023-06-26T10:35:48;23.80;99.90
22065;DHT22;11197;53.110;8.468;2023-06-26T10:38:14;23.80;99.90
22065;DHT22;11197;53.110;8.468;2023-06-26T10:40:42;23.90;99.90
22065;DHT22;11197;53.110;8.468;2023-06-26T10:43:09;23.90;99.90
22065;DHT22;11197;53.110;8.468;2023-06-26T10:45:36;23.90;99.90
22065;DHT22;11197;53.110;8.468;2023-06-26T10:48:03;24.00;99.90
22065;DHT22;11197;53.110;8.468;2023-06-26T10:50:33;24.00;99.90
22065;DHT22;11197;53.110;8.468;2023-06-26T11:01:14;23.80;99.90
22065;DHT22;11197;53.110;8.468;2023-06-26T11:06:29;23.70;99.90
22065;DHT22;11197;53.110;8.468;2023-06-26T11:14:23;23.60;99.90
22065;DHT22;11197;53.110;8.468;2023-06-26T11:16:49;23.70;99.90
22065;DHT22;11197;53.110;8.468;2023-06-26T11:19:17;23.70;99.90
22065;DHT22;11197;53.110;8.468;2023-06-26T11:21:44;23.80;99.90
22065;DHT22;11197;53.110;8.468;2023-06-26T11:24:12;23.70;99.90
22065;DHT22;11197;53.110;8.468;2023-06-26T11:26:38;23.80;99.90
22065;DHT22;11197;53.110;8.468;2023-06-26T11:29:05;23.80;99.90
22065;DHT22;11197;53.110;8.468;2023-06-26T11:31:32;24.00;99.90
22065;DHT22;11197;53.110;8.468;2023-06-26T11:34:07;24.10;99.90
22065;DHT22;11197;53.110;8.468;2023-06-26T11:36:34;24.20;99.90
22065;DHT22;11197;53.110;8.468;2023-06-26T11:39:04;24.20;99.90
22065;DHT22;11197;53.110;8.468;2023-06-26T11:41:37;24.20;99.90
22065;DHT22;11197;53.110;8.468;2023-06-26T11:44:05;24.20;99.90
22065;DHT22;11197;53.110;8.468;2023-06-26T11:46:31;24.20;99.90
22065;DHT22;11197;53.110;8.468;2023-06-26T11:48:58;24.20;99.90
22065;DHT22;11197;53.110;8.468;2023-06-26T11:51:26;24.20;99.90
22065;DHT22;11197;53.110;8.468;2023-06-26T11:53:52;24.10;99.90
22065;DHT22;11197;53.110;8.468;2023-06-26T11:56:18;24.10;99.90
22065;DHT22;11197;53.110;8.468;2023-06-26T11:59:04;24.10;99.90
22065;DHT22;11197;53.110;8.468;2023-06-26T12:01:43;24.10;99.90
22065;DHT22;11197;53.110;8.468;2023-06-26T12:04:14;24.10;99.90
22065;DHT22;11197;53.110;8.468;2023-06-26T12:06:48;24.10;99.90
22065;DHT22;11197;53.110;8.468;2023-06-26T12:09:16;24.10;99.90
22065;DHT22;11197;53.110;8.468;2023-06-26T12:11:43;24.10;99.90
22065;DHT22;11197;53.110;8.468;2023-06-26T12:14:11;24.10;99.90
22065;DHT22;11197;53.110;8.468;2023-06-26T12:16:37;24.00;99.90
22065;DHT22;11197;53.110;8.468;2023-06-26T12:19:07;24.00;99.90
22065;DHT22;11197;53.110;8.468;2023-06-26T12:24:09;24.00;99.90
22065;DHT22;11197;53.110;8.468;2023-06-26T12:26:35;24.10;99.90
22065;DHT22;11197;53.110;8.468;2023-06-26T12:29:08;24.10;99.90
22065;DHT22;11197;53.110;8.468;2023-06-26T12:31:34;24.20;99.90
22065;DHT22;11197;53.110;8.468;2023-06-26T12:34:01;24.20;99.90
22065;DHT22;11197;53.110;8.468;2023-06-26T12:36:27;24.20;99.90
22065;DHT22;11197;53.110;8.468;2023-06-26T12:38:54;24.10;99.90
22065;DHT22;11197;53.110;8.468;2023-06-26T12:41:20;24.00;99.90
22065;DHT22;11197;53.110;8.468;2023-06-26T12:43:49;24.00;99.90
22065;DHT22;11197;53.110;8.468;2023-06-26T12:46:15;24.00;99.90
22065;DHT22;11197;53.110;8.468;2023-06-26T12:48:42;24.00;99.90
22065;DHT22;11197;53.110;8.468;2023-06-26T12:51:14;24.10;99.90
22065;DHT22;11197;53.110;8.468;2023-06-26T12:53:40;24.20;99.90
22065;DHT22;11197;53.110;8.468;2023-06-26T12:56:07;24.20;99.90
22065;DHT22;11197;53.110;8.468;2023-06-26T12:58:34;24.20;99.90
22065;DHT22;11197;53.110;8.468;2023-06-26T13:01:05;24.30;99.90
22065;DHT22;11197;53.110;8.468;2023-06-26T13:03:31;24.30;99.90
22065;DHT22;11197;53.110;8.468;2023-06-26T13:05:57;24.30;99.90
22065;DHT22;11197;53.110;8.468;2023-06-26T13:08:23;24.30;99.90
22065;DHT22;11197;53.110;8.468;2023-06-26T13:10:49;24.30;99.90
22065;DHT22;11197;53.110;8.468;2023-06-26T13:13:14;24.30;99.90
22065;DHT22;11197;53.110;8.468;2023-06-26T13:15:40;24.30;99.90
22065;DHT22;11197;53.110;8.468;2023-06-26T13:18:06;24.30;99.90
22065;DHT22;11197;53.110;8.468;2023-06-26T13:20:31;24.20;99.90
22065;DHT22;11197;53.110;8.468;2023-06-26T13:22:57;24.20;99.90
22065;DHT22;11197;53.110;8.468;2023-06-26T13:25:23;24.20;99.90
22065;DHT22;11197;53.110;8.468;2023-06-26T13:27:49;24.20;99.90
22065;DHT22;11197;53.110;8.468;2023-06-26T13:30:15;24.30;99.90
22065;DHT22;11197;53.110;8.468;2023-06-26T13:32:42;24.40;99.90
22065;DHT22;11197;53.110;8.468;2023-06-26T13:35:09;24.30;99.90
22065;DHT22;11197;53.110;8.468;2023-06-26T13:37:35;24.30;99.90
22065;DHT22;11197;53.110;8.468;2023-06-26T13:40:02;24.20;99.90
22065;DHT22;11197;53.110;8.468;2023-06-26T13:42:29;24.20;99.90
22065;DHT22;11197;53.110;8.468;2023-06-26T13:44:55;24.30;99.90
22065;DHT22;11197;53.110;8.468;2023-06-26T13:47:20;24.20;99.90
22065;DHT22;11197;53.110;8.468;2023-06-26T13:49:46;24.10;99.90
22065;DHT22;11197;53.110;8.468;2023-06-26T13:52:12;24.00;99.90
22065;DHT22;11197;53.110;8.468;2023-06-26T13:54:38;24.00;99.90
22065;DHT22;11197;53.110;8.468;2023-06-26T13:57:08;23.90;99.90
22065;DHT22;11197;53.110;8.468;2023-06-26T13:59:37;23.80;99.90
22065;DHT22;11197;53.110;8.468;2023-06-26T14:02:05;23.80;99.90
22065;DHT22;11197;53.110;8.468;2023-06-26T14:04:32;23.70;99.90
22065;DHT22;11197;53.110;8.468;2023-06-26T14:06:58;23.70;99.90
22065;DHT22;11197;53.110;8.468;2023-06-26T14:09:24;23.70;99.90
22065;DHT22;11197;53.110;8.468;2023-06-26T14:11:49;23.70;99.90
22065;DHT22;11197;53.110;8.468;2023-06-26T14:14:15;23.70;99.90
22065;DHT22;11197;53.110;8.468;2023-06-26T14:16:41;23.70;99.90
22065;DHT22;11197;53.110;8.468;2023-06-26T14:19:06;23.70;99.90
22065;DHT22;11197;53.110;8.468;2023-06-26T14:21:32;23.60;99.90
22065;DHT22;11197;53.110;8.468;2023-06-26T14:23:59;23.60;99.90
22065;DHT22;11197;53.110;8.468;2023-06-26T14:26:25;23.60;99.90
22065;DHT22;11197;53.110;8.468;2023-06-26T14:28:50;23.60;99.90
22065;DHT22;11197;53.110;8.468;2023-06-26T14:31:16;23.50;99.90
22065;DHT22;11197;53.110;8.468;2023-06-26T14:33:42;23.60;99.90
22065;DHT22;11197;53.110;8.468;2023-06-26T14:36:08;23.50;99.90
22065;DHT22;11197;53.110;8.468;2023-06-26T14:38:34;23.50;99.90
22065;DHT22;11197;53.110;8.468;2023-06-26T14:40:59;23.40;99.90
22065;DHT22;11197;53.110;8.468;2023-06-26T14:43:25;23.30;99.90
22065;DHT22;11197;53.110;8.468;2023-06-26T14:45:51;23.30;99.90
22065;DHT22;11197;53.110;8.468;2023-06-26T14:48:16;23.30;99.90
22065;DHT22;11197;53.110;8.468;2023-06-26T14:50:42;23.30;99.90
22065;DHT22;11197;53.110;8.468;2023-06-26T14:53:08;23.30;99.90
22065;DHT22;11197;53.110;8.468;2023-06-26T14:55:33;23.30;99.90
22065;DHT22;11197;53.110;8.468;2023-06-26T14:57:59;23.30;99.90
22065;DHT22;11197;53.110;8.468;2023-06-26T15:00:25;23.30;99.90
22065;DHT22;11197;53.110;8.468;2023-06-26T15:02:52;23.30;99.90
22065;DHT22;11197;53.110;8.468;2023-06-26T15:05:25;23.30;99.90
22065;DHT22;11197;53.110;8.468;2023-06-26T15:07:51;23.30;99.90
22065;DHT22;11197;53.110;8.468;2023-06-26T15:10:17;23.20;99.90
22065;DHT22;11197;53.110;8.468;2023-06-26T15:12:43;23.20;99.90
22065;DHT22;11197;53.110;8.468;2023-06-26T15:15:09;23.20;99.90
22065;DHT22;11197;53.110;8.468;2023-06-26T15:17:35;23.20;99.90
22065;DHT22;11197;53.110;8.468;2023-06-26T15:20:01;23.20;99.90
22065;DHT22;11197;53.110;8.468;2023-06-26T15:22:27;23.20;99.90
22065;DHT22;11197;53.110;8.468;2023-06-26T15:24:53;23.10;99.90
22065;DHT22;11197;53.110;8.468;2023-06-26T15:27:19;23.10;99.90
22065;DHT22;11197;53.110;8.468;2023-06-26T15:29:45;23.10;99.90
22065;DHT22;11197;53.110;8.468;2023-06-26T15:32:10;23.10;99.90
22065;DHT22;11197;53.110;8.468;2023-06-26T15:34:36;23.00;99.90
22065;DHT22;11197;53.110;8.468;2023-06-26T15:37:02;23.10;99.90
22065;DHT22;11197;53.110;8.468;2023-06-26T15:39:28;23.10;99.90
22065;DHT22;11197;53.110;8.468;2023-06-26T15:41:53;23.10;99.90
22065;DHT22;11197;53.110;8.468;2023-06-26T15:44:19;23.10;99.90
22065;DHT22;11197;53.110;8.468;2023-06-26T15:46:45;23.00;99.90
22065;DHT22;11197;53.110;8.468;2023-06-26T15:49:10;23.00;99.90
22065;DHT22;11197;53.110;8.468;2023-06-26T15:51:37;23.00;99.90
22065;DHT22;11197;53.110;8.468;2023-06-26T15:54:04;23.00;99.90
22065;DHT22;11197;53.110;8.468;2023-06-26T15:56:30;23.00;99.90
22065;DHT22;11197;53.110;8.468;2023-06-26T15:58:55;22.90;99.90